Weather at kqxsstudio

Public forecast

Using degrees Celsius for public forecast. Weather courtesy of forecast.io.

Closest aviation weather report (METAR) to kqxsstudio

Closest report is Eareckson Air Station, 141.9 nm (262.8 km) W.

2024/07/19 04:55 (retrieved 16 minutes ago)

PASY 190455Z AUTO 09008KT 5SM BR M 10/09 A2955

Closest aviation forecast (TAF) to kqxsstudio

Forecast is more than 6 hours old.

Closest forecast is Elmendorf Air Force Base, 1,144.7 nm (2,120.0 km) NE.

2024/07/18 21:03 (retrieved 8 hours ago)

TAF PAED 182100Z 1821/2003 VRB06KT 9999 -SHRA SCT010 BKN020 BKN040 OVC060 620605 QNH3002INS BECMG 1903/1904 VRB06KT 9999 VCSH FEW010 SCT020 BKN055 BKN080 620555 QNH3004INS BECMG 1910/1911 33006KT 9999 NSW BKN015 BKN055 BKN080 620555 QNH3010INS TEMPO 1912/1919 8000 VCFG BKN003 BECMG 1919/1920 36006KT 9999 NSW SCT060 BKN080 BKN150 620805 QNH3012INS TX16/1920Z TN09/1913Z